Time;durP1;ratioP1;P1;durP2;ratioP2;P2;SDS_P1;SDS_P2;PMS_P1;PMS_P2;Temp;Humidity;BMP_temperature;BMP_pressure;BME280_temperature;BME280_humidity;BME280_pressure;Samples;Min_cycle;Max_cycle;Signal;HPM_P1;HPM_P2
2022/04/24 00:00:00;;;;;;;8.45;6.20;;;;;;;12.40;50.29;100237.13;5064189;28;20336;-60
2022/04/24 00:02:26;;;;;;;7.78;6.20;;;;;;;12.37;50.28;100235.69;5061510;28;20403;-60
2022/04/24 00:04:51;;;;;;;8.02;6.43;;;;;;;12.32;50.48;100229.31;5062070;28;20032;-60
2022/04/24 00:07:16;;;;;;;8.48;5.90;;;;;;;12.26;50.64;100236.25;5062904;28;20036;-60
2022/04/24 00:09:42;;;;;;;7.95;5.80;;;;;;;12.22;50.61;100235.00;5062909;28;20411;-60
2022/04/24 00:12:09;;;;;;;10.32;6.25;;;;;;;12.18;51.02;100232.94;5061912;28;20371;-60
2022/04/24 00:14:35;;;;;;;8.65;5.80;;;;;;;12.14;51.21;100221.00;5063841;28;20119;-60
2022/04/24 00:17:00;;;;;;;7.40;6.07;;;;;;;12.09;51.23;100226.91;5064200;28;20032;-60
2022/04/24 00:19:25;;;;;;;6.63;5.93;;;;;;;12.02;51.48;100228.72;5061618;28;20025;-60
2022/04/24 00:21:50;;;;;;;7.80;6.25;;;;;;;11.98;51.87;100224.81;5061829;28;20040;-60
2022/04/24 00:24:16;;;;;;;6.63;6.00;;;;;;;11.93;51.77;100225.41;5063104;28;20048;-60
2022/04/24 00:26:41;;;;;;;11.27;6.75;;;;;;;11.91;51.86;100218.63;5062589;28;20170;-59
2022/04/24 00:29:07;;;;;;;7.70;6.10;;;;;;;11.89;52.01;100215.34;5061933;28;20032;-59
2022/04/24 00:31:32;;;;;;;8.25;6.85;;;;;;;11.84;51.66;100218.56;5061563;28;21401;-60
2022/04/24 00:33:57;;;;;;;7.38;6.65;;;;;;;11.81;51.98;100220.78;5062860;28;20114;-60
2022/04/24 00:36:23;;;;;;;8.00;6.38;;;;;;;11.73;52.40;100211.91;5062232;28;20196;-60
2022/04/24 00:38:48;;;;;;;7.32;6.50;;;;;;;11.71;52.38;100213.13;5062197;28;20043;-60
2022/04/24 00:41:13;;;;;;;8.07;6.43;;;;;;;11.62;52.39;100204.47;5060911;28;20103;-60
2022/04/24 00:43:39;;;;;;;7.78;6.97;;;;;;;11.60;52.48;100208.34;5062242;28;20028;-60
2022/04/24 00:46:11;;;;;;;7.45;6.63;;;;;;;11.56;52.71;100209.72;5061710;28;20024;-59
2022/04/24 00:48:37;;;;;;;7.07;6.38;;;;;;;11.55;53.10;100208.91;5062912;28;20089;-58
2022/04/24 00:51:03;;;;;;;8.05;6.70;;;;;;;11.49;52.97;100199.84;5061986;28;20111;-59
2022/04/24 00:53:28;;;;;;;9.88;6.15;;;;;;;11.48;53.07;100206.19;5062336;28;20040;-60
2022/04/24 00:55:54;;;;;;;8.07;6.78;;;;;;;11.43;53.41;100205.94;5062342;28;20495;-60
2022/04/24 00:58:19;;;;;;;7.60;6.72;;;;;;;11.39;53.58;100210.00;5057115;28;20028;-59
2022/04/24 01:00:44;;;;;;;8.25;7.22;;;;;;;11.31;53.75;100204.84;5062128;28;20032;-60
2022/04/24 01:03:12;;;;;;;9.85;7.15;;;;;;;11.29;53.92;100203.38;5059318;28;20369;-60
2022/04/24 01:05:38;;;;;;;9.40;7.07;;;;;;;11.27;53.83;100205.38;5062889;28;20190;-60
2022/04/24 01:08:03;;;;;;;7.55;6.75;;;;;;;11.24;53.70;100205.75;5063162;28;20032;-59
2022/04/24 01:10:36;;;;;;;7.82;7.03;;;;;;;11.18;54.22;100210.81;5061489;28;20091;-60
2022/04/24 01:13:01;;;;;;;8.38;7.53;;;;;;;11.14;54.15;100214.06;5063974;28;20518;-60
2022/04/24 01:15:26;;;;;;;8.70;7.28;;;;;;;11.13;54.32;100215.06;5060592;28;20048;-59
2022/04/24 01:17:51;;;;;;;10.57;7.13;;;;;;;11.10;54.43;100216.28;5062381;28;20028;-60
2022/04/24 01:20:21;;;;;;;8.77;7.47;;;;;;;11.08;54.38;100218.31;5062168;28;20024;-59
2022/04/24 01:22:46;;;;;;;10.00;6.85;;;;;;;11.06;54.64;100220.31;5062805;28;20032;-60
2022/04/24 01:25:14;;;;;;;10.93;7.00;;;;;;;11.03;54.73;100227.84;5060982;28;20403;-59
2022/04/24 01:27:39;;;;;;;8.32;7.00;;;;;;;10.99;54.50;100218.63;5060870;28;20028;-59
2022/04/24 01:30:05;;;;;;;8.27;6.72;;;;;;;10.95;54.87;100215.50;5062146;28;20020;-60
2022/04/24 01:32:32;;;;;;;8.20;7.13;;;;;;;10.92;54.83;100212.38;5061293;28;20036;-60
2022/04/24 01:34:57;;;;;;;10.07;7.25;;;;;;;10.88;55.17;100211.13;5062519;28;20025;-60
2022/04/24 01:37:22;;;;;;;8.15;7.18;;;;;;;10.82;55.07;100205.56;5063433;28;20085;-60
2022/04/24 01:39:48;;;;;;;8.13;7.32;;;;;;;10.80;55.30;100209.41;5065136;28;20033;-60
2022/04/24 01:42:14;;;;;;;8.55;7.25;;;;;;;10.78;55.25;100209.59;5064794;28;20105;-60
2022/04/24 01:44:39;;;;;;;8.90;7.45;;;;;;;10.72;55.80;100205.03;5066326;28;20029;-60
2022/04/24 01:47:05;;;;;;;8.35;7.32;;;;;;;10.68;55.56;100209.06;5065273;28;20032;-60
2022/04/24 01:49:30;;;;;;;8.85;7.13;;;;;;;10.68;55.78;100219.69;5064972;28;20031;-60
2022/04/24 01:51:55;;;;;;;8.27;7.47;;;;;;;10.66;55.84;100208.41;5065616;28;20032;-60
2022/04/24 01:54:20;;;;;;;8.48;7.57;;;;;;;10.64;55.85;100218.41;5064528;28;20152;-60
2022/04/24 01:56:46;;;;;;;10.05;7.40;;;;;;;10.59;56.11;100219.97;5065094;28;20028;-60
2022/04/24 01:59:11;;;;;;;8.95;7.85;;;;;;;10.59;56.11;100217.31;5064305;28;20488;-60
2022/04/24 02:01:36;;;;;;;8.95;7.85;;;;;;;10.59;55.75;100210.19;5065222;28;20056;-59
2022/04/24 02:04:02;;;;;;;10.25;7.90;;;;;;;10.55;55.81;100220.34;5063214;28;20082;-60
2022/04/24 02:06:27;;;;;;;11.15;7.78;;;;;;;10.52;56.17;100215.41;5063931;28;20064;-60
2022/04/24 02:08:52;;;;;;;10.45;8.52;;;;;;;10.48;56.38;100213.31;5064178;28;20033;-60
2022/04/24 02:11:17;;;;;;;9.75;8.73;;;;;;;10.48;56.20;100213.31;5065094;28;20036;-60
2022/04/24 02:13:43;;;;;;;11.15;8.43;;;;;;;10.45;56.61;100211.03;5066544;28;20419;-60
2022/04/24 02:16:08;;;;;;;10.38;8.27;;;;;;;10.45;56.69;100217.19;5058256;28;20403;-60
2022/04/24 02:18:33;;;;;;;9.50;8.38;;;;;;;10.43;56.62;100205.09;5064029;28;20036;-60
2022/04/24 02:20:59;;;;;;;10.65;8.88;;;;;;;10.42;56.56;100208.75;5066754;28;20052;-60
2022/04/24 02:23:24;;;;;;;9.77;8.77;;;;;;;10.42;56.90;100211.41;5064034;28;20094;-60
2022/04/24 02:25:49;;;;;;;9.52;8.52;;;;;;;10.41;56.87;100212.44;5066077;28;20425;-60
2022/04/24 02:28:15;;;;;;;15.05;9.10;;;;;;;10.39;57.01;100219.72;5061209;28;20036;-60
2022/04/24 02:30:40;;;;;;;10.07;9.07;;;;;;;10.34;57.05;100204.34;5066472;28;20395;-60
2022/04/24 02:33:05;;;;;;;9.88;8.82;;;;;;;10.31;57.19;100203.91;5064502;28;20028;-60
2022/04/24 02:35:31;;;;;;;10.18;9.10;;;;;;;10.29;57.06;100205.91;5064050;28;20039;-60
2022/04/24 02:37:56;;;;;;;10.27;9.10;;;;;;;10.24;57.09;100209.94;5065006;28;20028;-60
2022/04/24 02:40:21;;;;;;;10.73;9.00;;;;;;;10.23;57.39;100207.50;5063809;28;20032;-59
2022/04/24 02:42:52;;;;;;;11.98;9.10;;;;;;;10.18;57.56;100213.31;5065122;28;20037;-59
2022/04/24 02:45:19;;;;;;;10.43;8.93;;;;;;;10.13;57.61;100210.41;5063543;28;20031;-59
2022/04/24 02:47:45;;;;;;;10.25;9.15;;;;;;;10.10;57.93;100210.72;5063326;28;20050;-60
2022/04/24 02:50:11;;;;;;;11.20;9.88;;;;;;;10.06;57.99;100211.28;5062766;28;20403;-59
2022/04/24 02:52:52;;;;;;;10.63;9.50;;;;;;;10.05;58.17;100220.25;5063513;28;20029;-60
2022/04/24 02:55:18;;;;;;;12.43;10.23;;;;;;;10.01;58.19;100221.63;5063029;28;20074;-60
2022/04/24 02:57:44;;;;;;;11.10;9.18;;;;;;;9.99;58.15;100223.63;5062822;28;20036;-60
2022/04/24 03:00:09;;;;;;;11.00;9.45;;;;;;;9.94;58.46;100224.19;5062968;28;20035;-60
2022/04/24 03:02:42;;;;;;;11.35;10.05;;;;;;;9.91;58.66;100233.34;5063861;28;20040;-60
2022/04/24 03:05:12;;;;;;;11.25;9.48;;;;;;;9.87;58.86;100228.56;5062185;28;20515;-60
2022/04/24 03:07:38;;;;;;;11.90;9.57;;;;;;;9.83;59.02;100227.25;5063007;28;20044;-60
2022/04/24 03:10:03;;;;;;;12.57;10.00;;;;;;;9.83;59.21;100235.22;5062230;28;20040;-60
2022/04/24 03:12:29;;;;;;;12.68;10.13;;;;;;;9.79;59.26;100228.63;5064258;28;20369;-60
2022/04/24 03:14:55;;;;;;;12.15;9.88;;;;;;;9.76;59.27;100229.00;5064703;28;20056;-60
2022/04/24 03:17:20;;;;;;;12.05;10.55;;;;;;;9.72;59.75;100225.06;5062644;28;20392;-59
2022/04/24 03:19:45;;;;;;;11.85;10.30;;;;;;;9.71;59.83;100220.75;5062208;28;20120;-60
2022/04/24 03:22:11;;;;;;;11.77;10.10;;;;;;;9.69;60.23;100223.59;5064341;28;20037;-60
2022/04/24 03:24:36;;;;;;;11.40;9.82;;;;;;;9.67;59.95;100222.94;5064857;28;20031;-61
2022/04/24 03:27:01;;;;;;;12.23;10.25;;;;;;;9.67;60.26;100222.13;5064124;28;20068;-59
2022/04/24 03:29:28;;;;;;;11.68;10.23;;;;;;;9.65;60.63;100227.63;5062962;28;20412;-60
2022/04/24 03:31:54;;;;;;;12.07;10.23;;;;;;;9.58;60.83;100210.78;5064713;28;20050;-60
2022/04/24 03:34:19;;;;;;;13.27;10.10;;;;;;;9.61;60.85;100221.03;5063700;28;20441;-60
2022/04/24 03:36:44;;;;;;;12.77;9.98;;;;;;;9.59;60.88;100220.38;5064265;28;20094;-59
2022/04/24 03:39:09;;;;;;;12.95;10.18;;;;;;;9.57;60.97;100222.38;5062162;28;20032;-60
2022/04/24 03:41:35;;;;;;;14.23;10.27;;;;;;;9.56;61.39;100216.25;5064261;28;20032;-59
2022/04/24 03:44:00;;;;;;;15.38;10.40;;;;;;;9.52;61.47;100214.94;5062521;28;20039;-60
2022/04/24 03:46:25;;;;;;;15.00;11.10;;;;;;;9.48;61.76;100224.25;5061278;28;20039;-59
2022/04/24 03:48:50;;;;;;;16.33;10.60;;;;;;;9.46;62.05;100222.81;5062480;28;20299;-60
2022/04/24 03:51:16;;;;;;;13.07;10.07;;;;;;;9.42;61.97;100221.50;5063014;28;20035;-60
2022/04/24 03:53:41;;;;;;;14.32;10.48;;;;;;;9.42;61.91;100221.50;5064105;28;20237;-60
2022/04/24 03:56:06;;;;;;;13.07;10.30;;;;;;;9.40;62.07;100218.22;5062817;28;20040;-60
2022/04/24 03:58:31;;;;;;;10.98;9.85;;;;;;;9.38;62.65;100221.03;5060992;28;20037;-60
2022/04/24 04:00:57;;;;;;;12.30;10.20;;;;;;;9.36;62.58;100217.75;5061902;28;20047;-59
2022/04/24 04:03:22;;;;;;;13.18;10.35;;;;;;;9.34;62.85;100218.94;5060644;28;20492;-59
2022/04/24 04:05:47;;;;;;;12.75;10.40;;;;;;;9.29;63.02;100217.66;5062486;28;20057;-59
2022/04/24 04:08:13;;;;;;;12.77;10.27;;;;;;;9.27;63.04;100214.34;5060646;28;20527;-59
2022/04/24 04:10:38;;;;;;;12.27;10.05;;;;;;;9.26;63.26;100215.34;5063941;28;20536;-59
2022/04/24 04:13:07;;;;;;;13.50;9.70;;;;;;;9.23;63.29;100218.31;5062171;28;20028;-60
2022/04/24 04:15:32;;;;;;;12.20;10.30;;;;;;;9.21;63.53;100215.03;5063391;28;20119;-60
2022/04/24 04:17:58;;;;;;;11.93;10.30;;;;;;;9.20;63.44;100225.81;5062404;28;20111;-59
2022/04/24 04:20:23;;;;;;;14.13;9.75;;;;;;;9.16;63.57;100225.34;5062059;28;20061;-59
2022/04/24 04:22:51;;;;;;;12.40;9.50;;;;;;;9.14;63.68;100226.53;5061829;28;20028;-60
2022/04/24 04:25:21;;;;;;;13.15;9.80;;;;;;;9.11;63.79;100224.22;5062049;28;20085;-60
2022/04/24 04:27:48;;;;;;;12.88;10.30;;;;;;;9.08;64.19;100228.06;5062253;28;20028;-60
2022/04/24 04:30:14;;;;;;;13.45;10.18;;;;;;;9.06;64.06;100231.88;5062355;28;20024;-60
2022/04/24 04:32:39;;;;;;;15.35;9.68;;;;;;;9.05;64.00;100227.59;5062890;28;20029;-59
2022/04/24 04:35:05;;;;;;;13.73;10.27;;;;;;;9.05;64.26;100236.34;5063420;28;20047;-60
2022/04/24 04:37:32;;;;;;;14.23;9.60;;;;;;;9.07;64.52;100238.81;5062587;28;20066;-60
2022/04/24 04:39:57;;;;;;;15.57;9.52;;;;;;;9.05;64.57;100241.66;5064104;28;20032;-59
2022/04/24 04:42:22;;;;;;;13.82;10.25;;;;;;;9.01;64.30;100237.72;5061767;28;20035;-59
2022/04/24 04:44:47;;;;;;;13.18;9.75;;;;;;;9.04;64.60;100247.94;5063300;28;20029;-59
2022/04/24 04:47:13;;;;;;;12.90;10.00;;;;;;;9.03;64.69;100248.94;5061336;28;20064;-60
2022/04/24 04:49:38;;;;;;;11.27;9.52;;;;;;;9.04;64.35;100255.06;5063018;28;20555;-59
2022/04/24 04:52:04;;;;;;;11.30;9.07;;;;;;;9.03;64.76;100254.25;5060713;28;20028;-60
2022/04/24 04:54:29;;;;;;;10.88;9.23;;;;;;;9.03;64.65;100258.72;5063869;28;20032;-60
2022/04/24 04:56:54;;;;;;;12.55;9.60;;;;;;;9.00;64.87;100260.72;5060026;28;20056;-60
2022/04/24 04:59:19;;;;;;;10.60;8.90;;;;;;;9.02;64.85;100262.38;5065281;28;20032;-60
2022/04/24 05:01:45;;;;;;;11.75;10.00;;;;;;;9.02;65.09;100265.84;5066189;28;20067;-59
2022/04/24 05:04:10;;;;;;;11.65;8.80;;;;;;;9.04;65.15;100261.19;5064497;28;20031;-59
2022/04/24 05:06:37;;;;;;;13.40;9.30;;;;;;;9.10;64.96;100268.44;5058197;28;20034;-60
2022/04/24 05:09:03;;;;;;;16.23;9.45;;;;;;;9.11;64.50;100271.91;5064859;28;20040;-60
2022/04/24 05:11:28;;;;;;;12.88;9.38;;;;;;;9.13;64.78;100280.50;5067216;28;20032;-60
2022/04/24 05:13:53;;;;;;;11.98;9.48;;;;;;;9.17;65.03;100276.50;5069239;28;20036;-60
2022/04/24 05:16:19;;;;;;;10.38;8.80;;;;;;;9.24;64.91;100282.72;5067564;28;20036;-60
2022/04/24 05:18:44;;;;;;;12.05;8.45;;;;;;;9.29;64.85;100277.75;5069527;28;20422;-60
2022/04/24 05:21:09;;;;;;;9.68;8.57;;;;;;;9.35;64.55;100290.31;5065364;28;20115;-59
2022/04/24 05:23:35;;;;;;;13.15;9.05;;;;;;;9.37;64.29;100285.66;5064338;28;20039;-59
2022/04/24 05:26:00;;;;;;;15.85;8.80;;;;;;;9.46;64.04;100291.72;5068887;28;20032;-59
2022/04/24 05:28:25;;;;;;;13.15;8.23;;;;;;;9.49;64.12;100288.69;5066167;28;20079;-59
2022/04/24 05:30:51;;;;;;;10.57;8.07;;;;;;;9.58;64.08;100290.31;5069506;28;20443;-60
2022/04/24 05:33:17;;;;;;;10.65;7.82;;;;;;;9.67;63.75;100299.00;5064830;28;20025;-59
2022/04/24 05:35:43;;;;;;;10.23;8.07;;;;;;;9.73;63.70;100303.59;5069144;28;20415;-58
2022/04/24 05:38:08;;;;;;;9.55;8.18;;;;;;;9.76;63.38;100292.63;5068231;28;20032;-59
2022/04/24 05:40:33;;;;;;;9.38;8.02;;;;;;;9.87;63.34;100295.69;5066084;28;20020;-60
2022/04/24 05:42:59;;;;;;;11.65;8.65;;;;;;;9.93;63.42;100299.47;5068839;28;20017;-60
2022/04/24 05:45:27;;;;;;;13.65;8.80;;;;;;;9.97;63.19;100295.44;5066325;28;20093;-60
2022/04/24 05:47:54;;;;;;;11.82;8.35;;;;;;;10.04;62.88;100295.53;5067332;28;20544;-58
2022/04/24 05:50:20;;;;;;;10.65;7.65;;;;;;;10.10;62.41;100292.97;5062456;28;20052;-60
2022/04/24 05:52:46;;;;;;;10.82;8.63;;;;;;;10.05;62.15;100284.75;5068785;28;20025;-60
2022/04/24 05:55:12;;;;;;;10.93;7.78;;;;;;;10.15;62.13;100295.13;5066794;28;20303;-60
2022/04/24 05:57:37;;;;;;;11.00;7.55;;;;;;;10.16;62.00;100302.06;5065672;28;20320;-60
2022/04/24 06:00:07;;;;;;;9.43;7.60;;;;;;;10.24;61.90;100307.31;5059113;28;21703;-59
2022/04/24 06:02:33;;;;;;;11.90;7.93;;;;;;;10.26;61.22;100312.44;5061668;28;20037;-59
2022/04/24 06:04:58;;;;;;;11.40;7.75;;;;;;;10.31;61.36;100308.22;5065485;28;20032;-59
2022/04/24 06:07:23;;;;;;;10.45;7.85;;;;;;;10.33;61.51;100319.50;5066078;28;20134;-60
2022/04/24 06:09:50;;;;;;;9.68;7.38;;;;;;;10.37;61.07;100306.69;5062419;28;20032;-60
2022/04/24 06:12:15;;;;;;;9.68;7.72;;;;;;;10.39;60.60;100307.31;5064320;28;20028;-60
2022/04/24 06:14:40;;;;;;;11.52;8.05;;;;;;;10.44;60.69;100307.63;5065161;28;20529;-60
2022/04/24 06:17:06;;;;;;;10.82;7.80;;;;;;;10.47;60.56;100315.22;5064026;28;20493;-60
2022/04/24 06:19:31;;;;;;;9.90;7.53;;;;;;;10.52;60.39;100311.00;5061696;28;20032;-60
2022/04/24 06:21:57;;;;;;;9.43;7.22;;;;;;;10.56;60.24;100314.09;5064598;28;20032;-60
2022/04/24 06:24:22;;;;;;;9.15;7.80;;;;;;;10.58;60.26;100312.09;5065198;28;20501;-60
2022/04/24 06:26:47;;;;;;;12.45;7.45;;;;;;;10.62;60.08;100316.03;5065181;28;20426;-60
2022/04/24 06:29:13;;;;;;;9.65;7.57;;;;;;;10.69;59.99;100324.06;5061875;28;20039;-60
2022/04/24 06:31:38;;;;;;;10.85;7.20;;;;;;;10.75;59.99;100321.53;5063975;28;20039;-60
2022/04/24 06:34:04;;;;;;;9.75;7.70;;;;;;;10.82;60.24;100325.09;5065918;28;20119;-60
2022/04/24 06:36:29;;;;;;;8.95;7.15;;;;;;;10.91;60.23;100319.66;5066214;28;20750;-59
2022/04/24 06:38:54;;;;;;;8.60;7.70;;;;;;;11.02;59.84;100319.22;5064571;28;20039;-60
2022/04/24 06:41:19;;;;;;;10.60;7.55;;;;;;;11.05;59.35;100319.66;5064274;28;20614;-60
2022/04/24 06:43:45;;;;;;;8.95;7.53;;;;;;;11.07;59.16;100312.31;5066013;28;20032;-60
2022/04/24 06:46:10;;;;;;;8.68;7.78;;;;;;;11.15;59.12;100322.81;5063249;28;20036;-59
2022/04/24 06:48:36;;;;;;;11.65;7.55;;;;;;;11.22;58.59;100325.56;5064682;28;20032;-59
2022/04/24 06:51:01;;;;;;;11.38;8.43;;;;;;;11.30;58.69;100325.47;5062533;28;20036;-60
2022/04/24 06:53:28;;;;;;;10.30;7.57;;;;;;;11.34;58.33;100316.09;5064198;28;20032;-59
2022/04/24 06:55:53;;;;;;;12.57;7.57;;;;;;;11.46;58.59;100327.03;5063417;28;20044;-59
2022/04/24 06:58:19;;;;;;;8.77;7.88;;;;;;;11.47;57.69;100328.69;5064131;28;20047;-59
2022/04/24 07:00:46;;;;;;;10.30;7.88;;;;;;;11.53;57.87;100329.78;5064523;28;20029;-59
2022/04/24 07:03:18;;;;;;;10.07;7.65;;;;;;;11.57;57.42;100331.06;5062416;28;20606;-59
2022/04/24 07:05:44;;;;;;;8.80;7.82;;;;;;;11.65;57.38;100338.91;5063349;28;20028;-59
2022/04/24 07:08:10;;;;;;;9.45;7.78;;;;;;;11.75;57.77;100331.44;5066763;28;20478;-60
2022/04/24 07:10:35;;;;;;;11.63;7.47;;;;;;;11.83;57.73;100336.63;5067651;28;20514;-60
2022/04/24 07:13:01;;;;;;;9.18;7.35;;;;;;;11.88;57.56;100326.28;5067688;28;20032;-60
2022/04/24 07:15:31;;;;;;;9.85;7.90;;;;;;;11.93;57.45;100342.47;5064875;28;20032;-60
2022/04/24 07:17:56;;;;;;;8.75;7.43;;;;;;;12.01;57.07;100338.84;5064374;28;20033;-59
2022/04/24 07:20:22;;;;;;;10.30;7.63;;;;;;;12.06;57.25;100337.25;5064509;28;20476;-59
2022/04/24 07:22:49;;;;;;;9.90;7.82;;;;;;;12.06;56.75;100341.75;5067402;28;20026;-60
2022/04/24 07:25:22;;;;;;;10.23;7.78;;;;;;;12.09;56.52;100342.19;5067433;28;20055;-58
2022/04/24 07:27:48;;;;;;;10.20;7.70;;;;;;;12.14;56.03;100343.44;5065955;28;20017;-59
2022/04/24 07:30:16;;;;;;;11.18;7.93;;;;;;;12.21;56.02;100345.16;5067260;28;20111;-59
2022/04/24 07:32:46;;;;;;;9.63;7.53;;;;;;;12.30;56.29;100348.50;5063817;28;20472;-60
2022/04/24 07:35:14;;;;;;;9.05;7.75;;;;;;;12.30;55.38;100345.84;5067528;28;20032;-59
2022/04/24 07:37:40;;;;;;;11.88;7.95;;;;;;;12.37;55.47;100350.19;5066621;28;20491;-60
2022/04/24 07:40:07;;;;;;;10.07;7.57;;;;;;;12.37;54.93;100347.53;5066252;28;20106;-60
2022/04/24 07:42:47;;;;;;;10.27;8.15;;;;;;;12.41;55.00;100342.63;5066514;28;20906;-60
2022/04/24 07:45:28;;;;;;;14.82;8.05;;;;;;;12.50;54.65;100349.47;5062121;28;20032;-59
2022/04/24 07:47:54;;;;;;;9.75;8.00;;;;;;;12.56;54.75;100354.00;5062647;28;20049;-59
2022/04/24 07:50:22;;;;;;;12.27;8.18;;;;;;;12.60;54.50;100355.25;5067073;28;20032;-59
2022/04/24 07:52:48;;;;;;;11.50;8.43;;;;;;;12.67;54.52;100340.13;5059671;28;20017;-59
2022/04/24 07:55:17;;;;;;;12.23;8.35;;;;;;;12.61;54.19;100326.78;5057030;28;20028;-59
2022/04/24 07:57:43;;;;;;;11.73;8.40;;;;;;;12.84;54.95;100347.81;5061104;28;20040;-59
2022/04/24 08:00:09;;;;;;;10.15;8.15;;;;;;;12.79;54.36;100337.75;5061535;28;20036;-59
2022/04/24 08:02:57;;;;;;;13.98;8.48;;;;;;;12.98;54.43;100341.50;5062102;28;20139;-59
2022/04/24 08:05:27;;;;;;;10.07;8.30;;;;;;;13.05;53.98;100350.38;5063197;28;20036;-59
2022/04/24 08:07:54;;;;;;;10.70;8.38;;;;;;;13.14;53.97;100354.53;5057729;28;20101;-59
2022/04/24 08:10:21;;;;;;;11.35;8.73;;;;;;;13.20;53.86;100360.91;5065456;28;20042;-59
2022/04/24 08:12:47;;;;;;;12.88;8.45;;;;;;;13.26;53.73;100362.78;5057309;28;20382;-59
2022/04/24 08:15:13;;;;;;;11.65;8.52;;;;;;;13.29;53.00;100363.22;5066508;28;20085;-59
2022/04/24 08:17:38;;;;;;;9.40;8.40;;;;;;;13.32;52.61;100359.34;5065792;28;20024;-60
2022/04/24 08:20:05;;;;;;;15.13;8.68;;;;;;;13.38;53.15;100353.19;5066779;28;20036;-59
2022/04/24 08:22:42;;;;;;;11.90;8.23;;;;;;;13.42;52.62;100364.28;5064007;28;20025;-59
2022/04/24 08:25:09;;;;;;;12.20;8.85;;;;;;;13.45;52.97;100359.38;5064292;28;20024;-59
2022/04/24 08:27:35;;;;;;;10.68;8.38;;;;;;;13.46;52.57;100368.19;5062281;28;20028;-59
2022/04/24 08:30:01;;;;;;;12.75;8.40;;;;;;;13.49;52.21;100365.13;5062804;28;20059;-59
2022/04/24 08:32:26;;;;;;;12.50;9.05;;;;;;;13.46;52.06;100365.53;5064796;28;20024;-59
2022/04/24 08:34:52;;;;;;;9.68;8.30;;;;;;;13.47;52.13;100365.31;5066038;28;20028;-59
2022/04/24 08:37:17;;;;;;;13.73;8.52;;;;;;;13.52;51.59;100364.72;5066220;28;20193;-59
2022/04/24 08:39:43;;;;;;;11.25;8.50;;;;;;;13.62;52.17;100363.31;5063576;28;20157;-59
2022/04/24 08:42:09;;;;;;;13.23;8.75;;;;;;;13.68;52.48;100363.53;5064741;28;20114;-59
2022/04/24 08:44:36;;;;;;;11.32;8.90;;;;;;;13.72;51.66;100367.44;5066442;28;20132;-59
2022/04/24 08:47:01;;;;;;;12.38;9.15;;;;;;;13.82;52.01;100367.84;5069320;28;20031;-59
2022/04/24 08:49:31;;;;;;;11.27;9.23;;;;;;;13.87;52.19;100371.56;5063237;28;20411;-58
2022/04/24 08:51:59;;;;;;;13.77;9.85;;;;;;;13.98;51.88;100367.47;5063438;28;20028;-59
2022/04/24 08:54:27;;;;;;;10.32;9.20;;;;;;;14.13;51.87;100373.44;5064267;28;20100;-59
2022/04/24 08:56:52;;;;;;;11.85;9.38;;;;;;;14.25;51.20;100379.00;5065774;28;20165;-59
2022/04/24 08:59:17;;;;;;;11.23;9.10;;;;;;;14.33;50.99;100372.63;5069659;28;20119;-60
2022/04/24 09:01:45;;;;;;;13.27;9.85;;;;;;;14.37;50.72;100373.84;5072214;28;20039;-60
2022/04/24 09:04:10;;;;;;;10.38;8.95;;;;;;;14.42;50.58;100376.72;5061285;28;20882;-59
2022/04/24 09:06:35;;;;;;;11.70;9.02;;;;;;;14.46;50.32;100378.81;5069520;28;20119;-59
2022/04/24 09:09:05;;;;;;;11.30;9.40;;;;;;;14.57;50.24;100380.84;5061767;28;20028;-59
2022/04/24 09:11:31;;;;;;;11.10;9.43;;;;;;;14.62;50.01;100384.75;5067127;28;20436;-59
2022/04/24 09:14:15;;;;;;;11.85;9.82;;;;;;;14.77;50.26;100382.69;5070595;28;20594;-59
2022/04/24 09:16:47;;;;;;;11.90;10.20;;;;;;;14.87;49.94;100373.19;5069142;28;20028;-58
2022/04/24 09:19:25;;;;;;;12.77;9.77;;;;;;;15.00;49.93;100380.31;5068997;28;20051;-59
2022/04/24 09:21:52;;;;;;;11.02;9.73;;;;;;;15.17;49.51;100372.66;5068823;28;20486;-60
2022/04/24 09:24:18;;;;;;;11.23;9.73;;;;;;;15.28;48.91;100374.66;5068316;28;20043;-60
2022/04/24 09:26:55;;;;;;;12.63;9.75;;;;;;;15.49;48.78;100379.72;5067577;28;20028;-59
2022/04/24 09:29:21;;;;;;;13.30;9.38;;;;;;;15.68;49.17;100382.53;5067532;28;20047;-60
2022/04/24 09:31:48;;;;;;;12.82;9.55;;;;;;;15.79;48.16;100387.19;5069675;28;20016;-59
2022/04/24 09:34:20;;;;;;;13.07;9.45;;;;;;;15.83;47.41;100376.88;5068197;28;20514;-59
2022/04/24 09:36:46;;;;;;;10.40;9.30;;;;;;;15.92;47.05;100383.63;5066656;28;20024;-59
2022/04/24 09:39:12;;;;;;;13.90;9.50;;;;;;;16.11;47.29;100391.50;5066482;28;20032;-59
2022/04/24 09:41:39;;;;;;;12.60;9.18;;;;;;;16.25;46.80;100384.19;5069100;28;20056;-60
2022/04/24 09:44:12;;;;;;;11.45;8.98;;;;;;;16.39;46.33;100383.03;5067807;28;20028;-59
2022/04/24 09:46:38;;;;;;;11.75;9.10;;;;;;;16.55;46.28;100375.47;5068284;28;20027;-60
2022/04/24 09:49:05;;;;;;;10.35;8.90;;;;;;;16.67;45.99;100381.78;5068251;28;20028;-60
2022/04/24 09:51:37;;;;;;;13.52;9.05;;;;;;;16.83;45.86;100378.53;5068573;28;20028;-60
2022/04/24 09:54:04;;;;;;;10.95;8.85;;;;;;;16.98;45.69;100381.66;5068928;28;20028;-59
2022/04/24 09:56:31;;;;;;;10.98;8.80;;;;;;;17.04;45.04;100382.59;5069263;28;20570;-59
2022/04/24 09:58:57;;;;;;;16.27;9.50;;;;;;;17.15;44.69;100378.38;5066897;28;20105;-60
2022/04/24 10:01:23;;;;;;;13.65;9.18;;;;;;;17.27;44.18;100381.94;5068866;28;20285;-60
2022/04/24 10:03:49;;;;;;;11.95;9.25;;;;;;;17.37;44.54;100382.22;5069141;28;20063;-60
2022/04/24 10:06:15;;;;;;;10.48;8.77;;;;;;;17.44;43.81;100379.44;5067901;28;20031;-61
2022/04/24 10:08:41;;;;;;;10.20;9.15;;;;;;;17.51;43.52;100386.38;5068464;28;20028;-60
2022/04/24 10:11:07;;;;;;;11.25;8.80;;;;;;;17.62;43.65;100384.75;5068442;28;20387;-59
2022/04/24 10:13:38;;;;;;;10.07;8.50;;;;;;;17.75;43.78;100383.81;5063344;28;20024;-60
2022/04/24 10:16:19;;;;;;;12.85;9.02;;;;;;;17.71;42.76;100388.00;5068255;28;20563;-60
2022/04/24 10:19:36;;;;;;;11.52;8.93;;;;;;;17.82;43.14;100381.84;5068543;28;20032;-60
2022/04/24 10:22:11;;;;;;;10.68;8.85;;;;;;;17.94;42.67;100385.38;5065168;28;20028;-60
2022/04/24 10:24:39;;;;;;;11.90;8.65;;;;;;;17.99;41.75;100384.69;5068419;28;20032;-60
2022/04/24 10:27:05;;;;;;;14.85;9.05;;;;;;;18.16;42.17;100383.78;5069047;28;20020;-60
2022/04/24 10:29:30;;;;;;;11.25;9.02;;;;;;;18.11;41.65;100386.34;5066476;28;20369;-60
2022/04/24 10:31:56;;;;;;;13.93;9.45;;;;;;;18.21;41.53;100389.31;5064838;28;20624;-60
2022/04/24 10:34:23;;;;;;;15.27;9.32;;;;;;;18.18;41.00;100384.38;5067499;28;20025;-60
2022/04/24 10:36:57;;;;;;;11.55;8.88;;;;;;;18.35;41.42;100387.19;5067450;28;20491;-60
2022/04/24 10:39:25;;;;;;;11.10;8.70;;;;;;;18.45;41.31;100389.31;5065808;28;20062;-60
2022/04/24 10:42:27;;;;;;;12.18;9.20;;;;;;;18.54;41.52;100375.28;5067829;28;20028;-59
2022/04/24 10:44:55;;;;;;;12.75;9.10;;;;;;;18.62;41.13;100381.38;5067460;28;20032;-60
2022/04/24 10:47:20;;;;;;;13.52;8.35;;;;;;;18.74;40.90;100391.09;5067165;28;20025;-60
2022/04/24 10:49:46;;;;;;;10.32;8.55;;;;;;;18.79;40.93;100382.31;5066717;28;20035;-60
2022/04/24 10:52:11;;;;;;;11.60;7.82;;;;;;;18.77;39.79;100381.72;5067563;28;20484;-59
2022/04/24 10:54:39;;;;;;;11.38;7.80;;;;;;;18.85;39.58;100376.00;5068644;28;20496;-60
2022/04/24 10:57:21;;;;;;;9.32;7.70;;;;;;;18.88;39.45;100388.97;5067655;28;20027;-60
2022/04/24 10:59:48;;;;;;;8.70;7.60;;;;;;;18.88;39.16;100379.03;5066066;28;20032;-59
2022/04/24 11:02:20;;;;;;;9.05;7.70;;;;;;;18.98;38.50;100374.91;5067217;28;20563;-60
2022/04/24 11:04:45;;;;;;;11.88;7.47;;;;;;;19.05;38.85;100372.91;5067373;28;20036;-60
2022/04/24 11:07:19;;;;;;;9.73;7.57;;;;;;;19.03;38.85;100358.88;5068253;28;20018;-60
2022/04/24 11:09:44;;;;;;;9.18;7.85;;;;;;;19.17;38.88;100371.03;5066787;28;20405;-60
2022/04/24 11:12:11;;;;;;;11.18;8.00;;;;;;;19.15;38.45;100367.75;5067563;28;20862;-60
2022/04/24 11:14:37;;;;;;;10.15;7.75;;;;;;;19.21;38.50;100366.78;5068382;28;21276;-60
2022/04/24 11:17:05;;;;;;;10.32;7.55;;;;;;;19.19;38.36;100379.69;5067531;28;20503;-60
2022/04/24 11:19:35;;;;;;;8.55;7.60;;;;;;;19.23;37.77;100380.00;5065447;28;20051;-60